Time;durP1;ratioP1;P1;durP2;ratioP2;P2;SDS_P1;SDS_P2;PMS_P1;PMS_P2;Temp;Humidity;BMP_temperature;BMP_pressure;BME280_temperature;BME280_humidity;BME280_pressure;Samples;Min_cycle;Max_cycle;Signal;HPM_P1;HPM_P2
2022/02/20 00:01:22;;;;;;;6.78;1.52;;;;;;;6.43;100.00;100467.13;4993141;28;20061;-72
2022/02/20 00:04:06;;;;;;;5.80;1.35;;;;;;;6.60;100.00;100479.13;4994196;28;20052;-73
2022/02/20 00:06:50;;;;;;;6.25;1.85;;;;;;;6.69;100.00;100466.03;4994215;28;20065;-74
2022/02/20 00:09:36;;;;;;;3.53;1.33;;;;;;;6.80;100.00;100457.28;4994143;28;20157;-73
2022/02/20 00:12:20;;;;;;;4.10;1.45;;;;;;;6.98;100.00;100474.44;4994013;28;20072;-74
2022/02/20 00:15:04;;;;;;;12.73;1.88;;;;;;;7.01;100.00;100459.16;4992936;28;20045;-74
2022/02/20 00:17:50;;;;;;;5.20;1.77;;;;;;;7.08;100.00;100470.13;4993181;28;20089;-73
2022/02/20 00:20:35;;;;;;;3.92;1.10;;;;;;;7.07;100.00;100453.38;4993635;28;20049;-73
2022/02/20 00:23:19;;;;;;;;;;;;;;;7.16;100.00;100457.97;4992990;28;20454;-73
2022/02/20 00:26:03;;;;;;;7.30;1.60;;;;;;;7.24;100.00;100466.19;4993499;28;19920;-73
2022/02/20 00:28:46;;;;;;;8.38;1.60;;;;;;;7.19;100.00;100468.31;4993923;28;20411;-73
2022/02/20 00:31:30;;;;;;;6.47;1.95;;;;;;;7.26;100.00;100474.00;5023467;23;20067;-72
2022/02/20 00:34:14;;;;;;;5.63;1.52;;;;;;;7.28;100.00;100477.41;5031832;28;20056;-70
2022/02/20 00:36:58;;;;;;;10.73;1.92;;;;;;;7.39;100.00;100464.16;5032904;28;20563;-71
2022/02/20 00:39:42;;;;;;;5.88;1.42;;;;;;;7.41;100.00;100452.47;5033060;28;20516;-71
2022/02/20 00:42:26;;;;;;;3.13;1.10;;;;;;;7.42;100.00;100462.09;5032152;28;20048;-71
2022/02/20 00:45:10;;;;;;;;;;;;;;;7.54;100.00;100469.09;5032253;28;20056;-71
2022/02/20 00:47:54;;;;;;;4.70;1.10;;;;;;;7.55;100.00;100461.00;5031783;28;19983;-69
2022/02/20 00:50:39;;;;;;;4.03;1.55;;;;;;;7.50;100.00;100458.84;5031674;28;20051;-70
2022/02/20 00:53:23;;;;;;;6.13;1.83;;;;;;;7.49;100.00;100460.63;5032854;28;20053;-68
2022/02/20 00:56:07;;;;;;;7.00;1.50;;;;;;;7.49;100.00;100467.78;5032613;28;20461;-69
2022/02/20 00:58:51;;;;;;;5.85;1.60;;;;;;;7.52;100.00;100460.44;5032856;28;20099;-71
2022/02/20 01:01:35;;;;;;;6.55;1.58;;;;;;;7.55;100.00;100461.00;5031497;28;20084;-70
2022/02/20 01:04:19;;;;;;;2.13;1.20;;;;;;;7.58;100.00;100465.22;5032078;28;20045;-71
2022/02/20 01:07:03;;;;;;;6.43;1.48;;;;;;;7.58;100.00;100481.16;5032847;28;20040;-71
2022/02/20 01:09:48;;;;;;;5.68;1.58;;;;;;;7.48;100.00;100490.78;5031542;28;20052;-70
2022/02/20 01:12:32;;;;;;;6.93;1.45;;;;;;;7.50;100.00;100486.19;5031405;28;20052;-70
2022/02/20 01:15:16;;;;;;;3.08;1.13;;;;;;;7.49;100.00;100484.50;5017931;28;20048;-69
2022/02/20 01:17:59;;;;;;;6.55;1.52;;;;;;;7.42;100.00;100491.28;5032799;28;20056;-71
2022/02/20 01:20:43;;;;;;;4.10;1.38;;;;;;;7.45;100.00;100496.34;5032517;28;20052;-70
2022/02/20 01:23:27;;;;;;;4.35;1.50;;;;;;;7.52;100.00;100502.88;5032356;28;20405;-71
2022/02/20 01:26:12;;;;;;;8.05;1.45;;;;;;;7.56;100.00;100504.31;5032579;28;20551;-70
2022/02/20 01:28:55;;;;;;;9.13;2.05;;;;;;;7.37;100.00;100497.91;5032674;28;20064;-71
2022/02/20 01:31:39;;;;;;;6.20;1.52;;;;;;;7.34;100.00;100509.59;5031533;28;20190;-70
2022/02/20 01:34:23;;;;;;;5.35;1.42;;;;;;;7.38;100.00;100511.03;5031471;28;20095;-70
2022/02/20 01:37:07;;;;;;;4.40;1.60;;;;;;;7.41;100.00;100494.91;5017196;28;20119;-71
2022/02/20 01:39:51;;;;;;;5.72;2.08;;;;;;;7.49;100.00;100507.56;5035327;28;20053;-71
2022/02/20 01:42:35;;;;;;;5.70;1.70;;;;;;;7.41;100.00;100510.81;5035000;28;20060;-71
2022/02/20 01:45:19;;;;;;;4.50;1.42;;;;;;;7.40;100.00;100497.66;5036023;28;20087;-71
2022/02/20 01:48:03;;;;;;;4.75;1.50;;;;;;;7.36;100.00;100497.06;5036500;28;20047;-71
2022/02/20 01:50:48;;;;;;;6.57;1.58;;;;;;;7.35;100.00;100498.00;5036424;28;20219;-71
2022/02/20 01:53:32;;;;;;;4.68;1.50;;;;;;;7.46;100.00;100521.91;5035084;28;20125;-71
2022/02/20 01:56:16;;;;;;;5.40;1.30;;;;;;;7.50;100.00;100514.56;5034711;28;20067;-70
2022/02/20 01:59:01;;;;;;;5.30;1.75;;;;;;;7.52;100.00;100509.97;5034968;28;20052;-71
2022/02/20 02:01:45;;;;;;;8.45;1.80;;;;;;;7.47;100.00;100518.28;5034615;28;20052;-72
2022/02/20 02:04:29;;;;;;;6.97;1.70;;;;;;;7.26;100.00;100517.28;5035606;28;20065;-70
2022/02/20 02:07:13;;;;;;;7.50;1.55;;;;;;;7.52;100.00;100545.31;5034848;28;20479;-72
2022/02/20 02:09:57;;;;;;;9.82;1.38;;;;;;;7.53;100.00;100515.16;5034706;28;20111;-70
2022/02/20 02:12:40;;;;;;;7.93;1.77;;;;;;;7.56;100.00;100520.22;5034479;28;20069;-71
2022/02/20 02:15:24;;;;;;;8.18;1.75;;;;;;;7.56;100.00;100520.22;5035474;28;20096;-71
2022/02/20 02:18:08;;;;;;;3.55;1.20;;;;;;;7.71;100.00;100514.56;5034641;28;20095;-70
2022/02/20 02:20:52;;;;;;;5.13;1.60;;;;;;;7.60;100.00;100500.44;5035671;28;20053;-70
2022/02/20 02:23:36;;;;;;;5.28;1.35;;;;;;;7.70;100.00;100502.25;5034543;28;20052;-71
2022/02/20 02:26:20;;;;;;;4.03;1.85;;;;;;;7.66;100.00;100502.63;5035475;28;20095;-71
2022/02/20 02:29:04;;;;;;;5.25;1.63;;;;;;;7.70;100.00;100504.06;5034420;28;20075;-72
2022/02/20 02:31:48;;;;;;;6.35;1.50;;;;;;;7.68;100.00;100532.53;5035193;28;20056;-71
2022/02/20 02:34:32;;;;;;;5.28;1.40;;;;;;;7.67;100.00;100504.31;5020162;28;20409;-70
2022/02/20 02:37:16;;;;;;;5.85;1.80;;;;;;;7.74;100.00;100516.13;5035204;28;20068;-70
2022/02/20 02:40:00;;;;;;;5.85;1.55;;;;;;;7.60;100.00;100526.97;5034240;28;20187;-71
2022/02/20 02:42:44;;;;;;;4.38;1.17;;;;;;;7.41;100.00;100525.88;5033914;28;20044;-71
2022/02/20 02:45:27;;;;;;;14.05;1.90;;;;;;;7.53;100.00;100531.91;5034149;28;20049;-71
2022/02/20 02:48:11;;;;;;;6.40;1.67;;;;;;;7.59;100.00;100514.66;5034825;28;20071;-71
2022/02/20 02:50:55;;;;;;;;;;;;;;;7.61;100.00;100523.34;5035511;28;20056;-71
2022/02/20 02:53:39;;;;;;;4.47;1.33;;;;;;;7.60;100.00;100534.94;5034068;28;19920;-70
2022/02/20 02:56:24;;;;;;;4.85;1.42;;;;;;;7.67;100.00;100530.84;5034943;28;20072;-71
2022/02/20 02:59:07;;;;;;;6.13;1.58;;;;;;;7.75;100.00;100529.28;5019866;28;20056;-70
2022/02/20 03:01:53;;;;;;;3.38;1.02;;;;;;;7.64;100.00;100539.06;5034605;28;20579;-70
2022/02/20 03:04:37;;;;;;;6.10;1.30;;;;;;;7.44;100.00;100521.19;5035048;28;20049;-71
2022/02/20 03:07:21;;;;;;;9.02;1.42;;;;;;;7.56;100.00;100554.72;5033704;28;20039;-71
2022/02/20 03:10:05;;;;;;;5.63;2.33;;;;;;;7.58;100.00;100545.69;5034689;28;20119;-72
2022/02/20 03:12:49;;;;;;;7.28;1.80;;;;;;;7.53;100.00;100531.09;5033548;28;20052;-70
2022/02/20 03:15:33;;;;;;;6.22;1.58;;;;;;;7.53;100.00;100526.59;5034553;28;20049;-69
2022/02/20 03:18:17;;;;;;;;;;;;;;;7.59;100.00;100525.28;5033757;28;20132;-71
2022/02/20 03:21:04;;;;;;;11.57;1.60;;;;;;;7.53;100.00;100525.78;5034546;28;20261;-70
2022/02/20 03:23:48;;;;;;;6.57;1.90;;;;;;;7.53;100.00;100524.91;5033151;28;20420;-71
2022/02/20 03:26:32;;;;;;;8.63;1.42;;;;;;;7.47;100.00;100531.53;5034508;28;20106;-71
2022/02/20 03:29:15;;;;;;;8.70;1.58;;;;;;;7.27;100.00;100539.34;5034362;28;20056;-70
2022/02/20 03:31:59;;;;;;;7.35;1.80;;;;;;;7.30;100.00;100523.19;5033872;28;20047;-71
2022/02/20 03:34:43;;;;;;;3.83;2.10;;;;;;;7.38;100.00;100518.97;5033063;28;20061;-71
2022/02/20 03:37:27;;;;;;;5.18;1.48;;;;;;;7.04;100.00;100519.88;5033117;28;20459;-70
2022/02/20 03:40:11;;;;;;;7.57;1.85;;;;;;;7.21;100.00;100518.59;5033072;28;20460;-72
2022/02/20 03:42:56;;;;;;;10.65;1.60;;;;;;;7.26;100.00;100516.41;5033954;28;20087;-71
2022/02/20 03:45:40;;;;;;;;;;;;;;;7.26;100.00;100522.59;5033435;28;20401;-70
2022/02/20 03:48:23;;;;;;;4.80;1.27;;;;;;;7.35;100.00;100535.16;5034115;28;19971;-72
2022/02/20 03:51:08;;;;;;;;;;;;;;;7.46;100.00;100534.31;5034021;28;20048;-71
2022/02/20 03:53:51;;;;;;;5.47;1.50;;;;;;;7.47;100.00;100550.13;5033654;28;19920;-70
2022/02/20 03:56:35;;;;;;;;;;;;;;;7.51;100.00;100550.72;5032972;28;20432;-71
2022/02/20 03:59:19;;;;;;;4.90;1.30;;;;;;;7.65;100.00;100567.28;5033726;28;19978;-71
2022/02/20 04:02:03;;;;;;;8.02;1.40;;;;;;;7.59;100.00;100557.13;5031977;28;20435;-70
2022/02/20 04:04:47;;;;;;;5.07;1.40;;;;;;;7.62;100.00;100565.69;5033394;28;20056;-71
2022/02/20 04:07:32;;;;;;;3.08;1.30;;;;;;;7.62;100.00;100567.53;5033416;28;20099;-70
2022/02/20 04:10:16;;;;;;;5.05;1.45;;;;;;;7.64;100.00;100573.53;5018618;28;20052;-71
2022/02/20 04:13:00;;;;;;;;;;;;;;;7.53;100.00;100580.63;5033731;28;20135;-71
2022/02/20 04:15:44;;;;;;;2.75;1.10;;;;;;;7.56;100.00;100594.50;5033230;28;19982;-71
2022/02/20 04:18:28;;;;;;;5.95;1.50;;;;;;;7.60;100.00;100601.25;5032198;28;20056;-71
2022/02/20 04:21:12;;;;;;;4.93;1.40;;;;;;;7.58;100.00;100598.75;5033391;28;20074;-71
2022/02/20 04:23:56;;;;;;;4.13;1.17;;;;;;;7.61;100.00;100602.94;5018337;28;20111;-70
2022/02/20 04:26:39;;;;;;;5.47;1.60;;;;;;;7.63;100.00;100593.91;5032032;28;20052;-72
2022/02/20 04:29:23;;;;;;;7.82;1.85;;;;;;;7.62;100.00;100592.22;5032200;28;20052;-71
2022/02/20 04:32:08;;;;;;;3.75;1.13;;;;;;;7.63;100.00;100601.03;5031707;28;20052;-71
2022/02/20 04:34:52;;;;;;;3.72;1.25;;;;;;;7.58;100.00;100603.19;5032167;28;20044;-70
2022/02/20 04:37:36;;;;;;;10.43;1.80;;;;;;;7.61;100.00;100608.25;5032904;28;20041;-71
2022/02/20 04:40:20;;;;;;;7.55;1.60;;;;;;;7.62;100.00;100600.19;5032116;28;20044;-71
2022/02/20 04:43:04;;;;;;;6.43;1.50;;;;;;;7.60;100.00;100604.78;5031779;28;20052;-71
2022/02/20 04:45:48;;;;;;;8.02;1.65;;;;;;;7.64;100.00;100600.06;5032899;28;20175;-71
2022/02/20 04:48:31;;;;;;;5.47;1.48;;;;;;;7.63;100.00;100601.88;5033062;28;20055;-71
2022/02/20 04:51:15;;;;;;;7.82;1.60;;;;;;;7.42;100.00;100612.44;5032908;28;20114;-71
2022/02/20 04:54:00;;;;;;;6.35;1.27;;;;;;;7.35;100.00;100606.75;5032925;28;20416;-70
2022/02/20 04:56:44;;;;;;;4.55;1.42;;;;;;;7.30;100.00;100610.72;5032650;28;20053;-70
2022/02/20 04:59:28;;;;;;;5.97;1.38;;;;;;;7.17;100.00;100618.72;5031851;28;20456;-70
2022/02/20 05:02:12;;;;;;;3.72;1.20;;;;;;;7.14;100.00;100618.97;5031762;28;20049;-70
2022/02/20 05:04:55;;;;;;;5.85;1.08;;;;;;;7.12;100.00;100609.44;5032880;28;20095;-71
2022/02/20 05:07:39;;;;;;;2.53;1.00;;;;;;;7.16;100.00;100611.75;5032604;28;20106;-71
2022/02/20 05:10:23;;;;;;;2.72;1.10;;;;;;;7.12;100.00;100614.72;5031565;28;20080;-71
2022/02/20 05:13:07;;;;;;;4.35;1.20;;;;;;;7.19;100.00;100619.44;5035764;28;20095;-70
2022/02/20 05:15:51;;;;;;;5.20;1.30;;;;;;;7.13;100.00;100605.81;5035700;28;20146;-69
2022/02/20 05:18:35;;;;;;;;;;;;;;;7.15;100.00;100611.84;5036207;28;20405;-71
2022/02/20 05:21:19;;;;;;;3.03;1.20;;;;;;;7.16;100.00;100617.03;5036666;28;19927;-71
2022/02/20 05:24:03;;;;;;;2.80;1.20;;;;;;;7.13;100.00;100619.06;5035434;28;20362;-70
2022/02/20 05:26:46;;;;;;;3.03;1.13;;;;;;;7.15;100.00;100614.50;5036627;28;20086;-70
2022/02/20 05:29:30;;;;;;;3.47;1.27;;;;;;;7.17;100.00;100602.00;5035557;28;20136;-70
2022/02/20 05:32:23;;;;;;;5.90;1.08;;;;;;;7.09;100.00;100596.41;5036311;28;20099;-71
2022/02/20 05:35:07;;;;;;;3.42;1.05;;;;;;;7.01;100.00;100604.94;5036469;28;20053;-70
2022/02/20 05:37:51;;;;;;;3.40;1.40;;;;;;;6.93;100.00;100604.66;5036452;28;20068;-71
2022/02/20 05:40:35;;;;;;;5.25;1.35;;;;;;;7.01;100.00;100602.28;5036245;28;20483;-71
2022/02/20 05:43:19;;;;;;;5.70;1.25;;;;;;;7.08;100.00;100605.31;5036272;28;20108;-71
2022/02/20 05:46:03;;;;;;;3.47;0.95;;;;;;;7.04;100.00;100607.34;5036596;28;20398;-71
2022/02/20 05:48:46;;;;;;;4.90;1.10;;;;;;;7.11;100.00;100605.94;5035020;28;20045;-71
2022/02/20 05:51:32;;;;;;;4.38;1.10;;;;;;;7.03;100.00;100610.09;5035125;28;20152;-72
2022/02/20 05:54:16;;;;;;;3.30;1.25;;;;;;;7.09;100.00;100601.72;5036349;28;20052;-71
2022/02/20 05:57:00;;;;;;;8.27;1.20;;;;;;;7.06;100.00;100604.59;5035951;28;20051;-71
2022/02/20 05:59:44;;;;;;;3.75;1.20;;;;;;;7.09;100.00;100610.50;5035909;28;20441;-71
2022/02/20 06:02:28;;;;;;;1.73;1.00;;;;;;;7.10;100.00;100621.97;5035777;28;20048;-71
2022/02/20 06:05:12;;;;;;;3.65;1.25;;;;;;;7.12;100.00;100614.72;5020683;28;20056;-72
2022/02/20 06:07:56;;;;;;;6.70;1.70;;;;;;;7.14;100.00;100618.97;5020615;28;20083;-72
2022/02/20 06:10:40;;;;;;;;;;;;;;;7.12;100.00;100628.84;5036171;28;20051;-71
2022/02/20 06:13:23;;;;;;;3.20;1.05;;;;;;;7.16;100.00;100626.81;5034628;28;20273;-69
2022/02/20 06:16:07;;;;;;;6.45;1.42;;;;;;;7.14;100.00;100634.88;5034385;28;20098;-71
2022/02/20 06:18:51;;;;;;;4.25;1.42;;;;;;;7.19;100.00;100639.84;5034666;28;20052;-70
2022/02/20 06:21:35;;;;;;;6.80;1.25;;;;;;;7.21;100.00;100630.81;5035555;28;20107;-71
2022/02/20 06:24:19;;;;;;;4.25;1.48;;;;;;;7.16;100.00;100621.50;5035058;28;20055;-71
2022/02/20 06:27:04;;;;;;;3.00;1.52;;;;;;;7.16;100.00;100630.28;5035541;28;20076;-70
2022/02/20 06:29:48;;;;;;;5.00;1.02;;;;;;;7.20;100.00;100628.28;5020235;28;20117;-71
2022/02/20 06:32:32;;;;;;;;;;;;;;;7.23;100.00;100636.84;5052620;22;20131;-71
2022/02/20 06:35:16;;;;;;;5.05;1.10;;;;;;;7.31;100.00;100621.22;5014554;28;19955;-71
2022/02/20 06:38:00;;;;;;;3.00;1.10;;;;;;;7.27;100.00;100629.50;5014547;28;20079;-71
2022/02/20 06:40:44;;;;;;;4.93;1.45;;;;;;;7.31;100.00;100630.97;5000857;28;20350;-71
2022/02/20 06:43:28;;;;;;;4.22;1.27;;;;;;;7.33;100.00;100623.72;5015600;28;20468;-71
2022/02/20 06:46:12;;;;;;;5.82;1.63;;;;;;;7.28;100.00;100631.19;5015823;28;20088;-71
2022/02/20 06:48:56;;;;;;;2.80;0.95;;;;;;;7.29;100.00;100617.81;5014183;28;20080;-71
2022/02/20 06:51:40;;;;;;;4.35;1.20;;;;;;;7.27;100.00;100619.72;5015423;28;20053;-71
2022/02/20 06:54:27;;;;;;;3.10;1.02;;;;;;;7.27;100.00;100630.34;5015587;28;20044;-73
2022/02/20 06:57:10;;;;;;;7.03;1.13;;;;;;;7.28;100.00;100632.03;5015022;28;20493;-73
2022/02/20 06:59:54;;;;;;;1.60;0.90;;;;;;;7.33;100.00;100645.81;5000051;28;20137;-73
2022/02/20 07:02:39;;;;;;;1.00;0.68;;;;;;;7.36;100.00;100642.91;5015024;28;20172;-73
2022/02/20 07:05:24;;;;;;;2.38;0.65;;;;;;;7.37;100.00;100641.94;5015044;28;20053;-71
2022/02/20 07:08:08;;;;;;;3.83;0.95;;;;;;;7.35;100.00;100637.72;5015073;28;20048;-73
2022/02/20 07:10:52;;;;;;;0.60;0.60;;;;;;;7.45;100.00;100641.38;5013855;28;20049;-73
2022/02/20 07:13:35;;;;;;;3.53;1.00;;;;;;;7.38;100.00;100643.63;5013609;28;20088;-73
2022/02/20 07:16:19;;;;;;;3.45;0.90;;;;;;;7.38;100.00;100643.63;4999789;28;20088;-71
2022/02/20 07:19:03;;;;;;;1.38;0.90;;;;;;;7.31;100.00;100644.22;5013532;28;20056;-73
2022/02/20 07:21:47;;;;;;;1.70;0.57;;;;;;;7.15;100.00;100647.16;5013492;28;20052;-71
2022/02/20 07:24:31;;;;;;;1.85;0.90;;;;;;;7.20;100.00;100645.00;5013420;28;20048;-73
2022/02/20 07:27:15;;;;;;;3.38;0.80;;;;;;;7.00;100.00;100648.31;5013742;28;20108;-71
2022/02/20 07:29:59;;;;;;;1.27;0.73;;;;;;;6.96;100.00;100641.53;5014541;28;20057;-73
2022/02/20 07:32:43;;;;;;;2.45;0.60;;;;;;;6.93;100.00;100639.09;4999529;28;20152;-73
2022/02/20 07:35:27;;;;;;;0.70;0.60;;;;;;;6.82;100.00;100639.06;5012321;28;20060;-72
2022/02/20 07:38:11;;;;;;;;;;;;;;;6.83;100.00;100638.09;5013575;28;20077;-71
2022/02/20 07:40:54;;;;;;;2.80;0.80;;;;;;;6.85;100.00;100630.88;5013412;28;20380;-73
2022/02/20 07:43:38;;;;;;;2.38;0.70;;;;;;;6.91;100.00;100627.78;5014201;28;20057;-73
2022/02/20 07:46:22;;;;;;;0.75;0.45;;;;;;;6.95;100.00;100623.94;5013030;28;20096;-73
2022/02/20 07:49:06;;;;;;;2.10;0.70;;;;;;;6.98;100.00;100618.41;5014483;28;20135;-73
2022/02/20 07:51:50;;;;;;;2.15;0.68;;;;;;;6.97;100.00;100622.00;5013196;28;20089;-72
2022/02/20 07:54:34;;;;;;;0.95;0.65;;;;;;;7.04;100.00;100625.91;5014419;28;20108;-73
2022/02/20 07:57:18;;;;;;;1.60;0.70;;;;;;;7.08;100.00;100622.06;5014062;28;20073;-73
2022/02/20 08:00:03;;;;;;;1.95;0.70;;;;;;;7.15;100.00;100630.41;5014092;28;20075;-73
2022/02/20 08:02:47;;;;;;;1.75;0.57;;;;;;;7.10;100.00;100633.38;5012663;28;20053;-73
2022/02/20 08:05:30;;;;;;;;;;;;;;;7.20;100.00;100633.56;5013339;28;20406;-73
2022/02/20 08:08:15;;;;;;;2.93;1.10;;;;;;;7.15;100.00;100635.69;5013926;28;20329;-73
2022/02/20 08:11:00;;;;;;;1.25;0.82;;;;;;;7.22;100.00;100637.81;5012628;28;20053;-73
2022/02/20 08:13:44;;;;;;;0.73;0.60;;;;;;;7.19;100.00;100624.75;5012964;28;20099;-73
2022/02/20 08:16:28;;;;;;;0.82;0.52;;;;;;;7.25;100.00;100637.56;4998718;28;20049;-73
2022/02/20 08:19:12;;;;;;;2.65;1.00;;;;;;;7.33;100.00;100640.50;5013752;28;20061;-73
2022/02/20 08:21:56;;;;;;;0.90;0.60;;;;;;;7.38;100.00;100643.63;5013417;28;20584;-73
2022/02/20 08:24:40;;;;;;;0.68;0.47;;;;;;;7.37;100.00;100647.25;5012390;28;20125;-73
2022/02/20 08:27:24;;;;;;;3.20;0.80;;;;;;;7.43;100.00;100646.81;5012604;28;20093;-73
2022/02/20 08:30:10;;;;;;;3.10;1.02;;;;;;;7.44;100.00;100671.50;4998494;28;20453;-74
2022/02/20 08:32:55;;;;;;;2.47;0.65;;;;;;;7.30;100.00;100656.63;5012438;28;20153;-74
2022/02/20 08:35:39;;;;;;;2.97;0.80;;;;;;;7.29;100.00;100646.16;5013429;28;20053;-73
2022/02/20 08:38:22;;;;;;;1.58;0.85;;;;;;;7.50;100.00;100663.09;5013238;28;20061;-73
2022/02/20 08:41:06;;;;;;;2.35;0.80;;;;;;;7.36;100.00;100645.56;4998426;28;20060;-73
2022/02/20 08:43:50;;;;;;;2.10;0.80;;;;;;;7.51;100.00;100660.31;4998603;28;20084;-73
2022/02/20 08:46:34;;;;;;;0.82;0.80;;;;;;;7.53;100.00;100662.88;5012864;28;20052;-73
2022/02/20 08:49:18;;;;;;;;;;;;;;;7.62;100.00;100658.56;5014037;28;20061;-72
2022/02/20 08:52:02;;;;;;;2.92;0.80;;;;;;;7.70;100.00;100648.22;5012987;28;20009;-72
2022/02/20 08:54:48;;;;;;;1.75;0.60;;;;;;;7.74;100.00;100636.38;5013418;28;20084;-75
2022/02/20 08:57:34;;;;;;;1.60;0.73;;;;;;;7.81;100.00;100636.75;4998402;28;20168;-75
2022/02/20 09:00:18;;;;;;;1.52;0.70;;;;;;;7.80;100.00;100646.53;5013186;28;20057;-75
2022/02/20 09:03:02;;;;;;;2.35;0.63;;;;;;;7.83;100.00;100650.78;5012830;28;20186;-75
2022/02/20 09:05:46;;;;;;;1.95;0.80;;;;;;;7.82;100.00;100659.72;5012318;28;20049;-74
2022/02/20 09:08:30;;;;;;;;;;;;;;;7.85;100.00;100654.97;5012461;28;20414;-75
2022/02/20 09:11:14;;;;;;;0.68;0.68;;;;;;;7.95;100.00;100660.44;5011976;28;19975;-74
2022/02/20 09:13:58;;;;;;;;;;;;;;;7.94;100.00;100662.25;5012149;28;20064;-75
2022/02/20 09:16:42;;;;;;;2.00;1.20;;;;;;;7.97;100.00;100651.41;5011689;28;19994;-75
2022/02/20 09:19:27;;;;;;;1.30;0.80;;;;;;;7.96;100.00;100643.56;5012048;28;20583;-75
2022/02/20 09:22:11;;;;;;;1.23;0.60;;;;;;;8.05;100.00;100648.16;5011770;28;20049;-75
2022/02/20 09:24:55;;;;;;;1.05;0.63;;;;;;;7.95;100.00;100660.44;5012970;28;20121;-75
2022/02/20 09:27:42;;;;;;;3.47;0.68;;;;;;;8.01;100.00;100649.34;5011785;28;20049;-75
2022/02/20 09:30:26;;;;;;;1.75;0.80;;;;;;;8.02;100.00;100640.41;5011843;28;20048;-75
2022/02/20 09:33:10;;;;;;;1.67;0.80;;;;;;;8.05;100.00;100643.66;5012501;28;20044;-74
2022/02/20 09:35:54;;;;;;;1.77;0.80;;;;;;;8.11;100.00;100651.19;5011697;28;20049;-74
2022/02/20 09:38:38;;;;;;;1.13;0.70;;;;;;;8.15;100.00;100622.56;5013053;28;20548;-75
2022/02/20 09:41:27;;;;;;;2.03;0.70;;;;;;;8.16;100.00;100616.28;5011795;28;20053;-74
2022/02/20 09:44:11;;;;;;;1.70;0.63;;;;;;;8.15;100.00;100610.13;5012456;28;20133;-74
2022/02/20 09:46:55;;;;;;;0.98;0.63;;;;;;;8.13;100.00;100621.84;5012523;28;20109;-74
2022/02/20 09:49:40;;;;;;;1.20;0.70;;;;;;;8.18;100.00;100619.66;4997603;28;20514;-74
2022/02/20 09:52:24;;;;;;;1.65;0.65;;;;;;;8.17;100.00;100604.72;5011583;28;20095;-75
2022/02/20 09:55:08;;;;;;;0.70;0.70;;;;;;;8.16;100.00;100614.47;5011328;28;20561;-74
2022/02/20 09:57:53;;;;;;;3.13;1.35;;;;;;;8.18;100.00;100627.63;5011583;28;20076;-74
2022/02/20 10:00:37;;;;;;;1.13;0.98;;;;;;;8.33;100.00;100634.41;5016095;28;20559;-75
2022/02/20 10:03:31;;;;;;;1.65;0.95;;;;;;;8.39;100.00;100636.59;5014863;28;20175;-74
2022/02/20 10:06:20;;;;;;;2.70;0.65;;;;;;;8.45;100.00;100607.72;5016205;28;20095;-75
2022/02/20 10:09:04;;;;;;;1.65;0.70;;;;;;;8.32;100.00;100622.97;5015066;28;20129;-75
2022/02/20 10:11:48;;;;;;;3.50;1.52;;;;;;;8.48;100.00;100606.66;5001155;28;20129;-74
2022/02/20 10:14:32;;;;;;;0.98;0.73;;;;;;;8.45;100.00;100604.25;5016241;28;20052;-75
2022/02/20 10:17:18;;;;;;;1.13;0.70;;;;;;;8.54;100.00;100598.19;5001020;28;20101;-75
2022/02/20 10:20:04;;;;;;;0.70;0.60;;;;;;;8.50;100.00;100589.63;5014586;28;20057;-74
2022/02/20 10:22:48;;;;;;;1.00;0.60;;;;;;;8.55;100.00;100599.88;5015801;28;20080;-74
2022/02/20 10:25:33;;;;;;;;;;;;;;;8.69;100.00;100599.59;5015938;28;20125;-75
2022/02/20 10:28:18;;;;;;;0.75;0.70;;;;;;;8.62;100.00;100577.13;5014768;28;19924;-74
2022/02/20 10:31:02;;;;;;;3.67;0.85;;;;;;;8.65;100.00;100583.06;5014580;28;20176;-75
2022/02/20 10:34:04;;;;;;;3.13;0.77;;;;;;;8.59;100.00;100580.06;5015565;28;20085;-74
2022/02/20 10:36:54;;;;;;;1.92;0.93;;;;;;;8.58;100.00;100583.69;5014433;28;20044;-74
2022/02/20 10:39:43;;;;;;;1.10;0.80;;;;;;;8.62;100.00;100564.72;5014361;28;20528;-74
2022/02/20 10:42:27;;;;;;;1.00;0.80;;;;;;;8.81;100.00;100595.94;5014472;28;20115;-74
2022/02/20 10:45:22;;;;;;;2.08;0.80;;;;;;;8.71;100.00;100581.72;5015257;28;20045;-73
2022/02/20 10:48:15;;;;;;;1.48;0.70;;;;;;;8.63;100.00;100558.41;5000543;28;20102;-74
2022/02/20 10:50:59;;;;;;;1.88;0.80;;;;;;;8.49;100.00;100558.72;5014071;28;20123;-74
2022/02/20 10:53:50;;;;;;;1.77;0.90;;;;;;;8.53;100.00;100557.47;5015284;28;20100;-74
2022/02/20 10:56:39;;;;;;;1.15;0.68;;;;;;;8.64;100.00;100576.06;5000667;28;20044;-74
2022/02/20 10:59:24;;;;;;;3.53;1.15;;;;;;;8.55;100.00;100546.75;5000174;28;20052;-74
2022/02/20 11:02:15;;;;;;;2.78;0.82;;;;;;;8.57;100.00;100542.97;5014810;28;20056;-74
2022/02/20 11:05:00;;;;;;;1.65;0.98;;;;;;;8.62;100.00;100563.84;5014026;28;20505;-74
2022/02/20 11:07:44;;;;;;;1.50;0.95;;;;;;;8.64;100.00;100538.03;5014012;28;20544;-74
2022/02/20 11:10:28;;;;;;;1.20;0.90;;;;;;;8.75;100.00;100537.97;5014487;28;20069;-73
2022/02/20 11:13:14;;;;;;;2.70;1.02;;;;;;;8.75;100.00;100527.34;5013529;28;20053;-74
2022/02/20 11:15:58;;;;;;;0.70;0.70;;;;;;;8.83;100.00;100524.88;5013575;28;20079;-73
2022/02/20 11:18:42;;;;;;;2.05;1.00;;;;;;;8.85;100.00;100526.44;5013773;28;20049;-74
2022/02/20 11:21:27;;;;;;;2.75;1.00;;;;;;;8.74;100.00;100528.28;4999786;28;20068;-74
2022/02/20 11:24:12;;;;;;;1.75;0.82;;;;;;;8.91;100.00;100525.09;5013568;28;20056;-74
2022/02/20 11:27:01;;;;;;;1.95;1.02;;;;;;;8.89;100.00;100516.41;4999789;28;20562;-74
2022/02/20 11:29:46;;;;;;;2.50;0.93;;;;;;;8.96;100.00;100512.28;5014590;28;20065;-74
2022/02/20 11:32:30;;;;;;;2.05;0.85;;;;;;;8.93;100.00;100507.19;5013304;28;20592;-74
2022/02/20 11:35:15;;;;;;;1.75;0.80;;;;;;;9.01;100.00;100480.81;5013508;28;20417;-73
2022/02/20 11:38:15;;;;;;;1.23;0.80;;;;;;;9.06;100.00;100465.31;5013269;28;20040;-74
2022/02/20 11:41:04;;;;;;;3.13;0.70;;;;;;;9.15;100.00;100469.88;5014172;28;20045;-74
2022/02/20 11:43:50;;;;;;;3.05;1.08;;;;;;;9.15;100.00;100469.88;4999731;28;20052;-74
2022/02/20 11:46:44;;;;;;;2.30;0.90;;;;;;;9.21;100.00;100464.00;5014022;28;20513;-74
2022/02/20 11:49:29;;;;;;;1.17;0.80;;;;;;;9.27;100.00;100452.84;5013085;28;20068;-74
2022/02/20 11:52:14;;;;;;;1.67;0.70;;;;;;;9.27;100.00;100447.53;4999247;28;20049;-74
2022/02/20 11:54:58;;;;;;;3.30;0.90;;;;;;;9.36;100.00;100444.91;5013077;28;20462;-74
2022/02/20 11:57:44;;;;;;;4.43;1.33;;;;;;;9.40;100.00;100456.13;5012808;28;20111;-74
2022/02/20 12:00:28;;;;;;;1.77;1.10;;;;;;;9.43;100.00;100439.91;5013024;28;20485;-73
2022/02/20 12:03:19;;;;;;;2.90;0.80;;;;;;;9.49;100.00;100432.22;5013068;28;20132;-74
2022/02/20 12:06:17;;;;;;;2.20;0.93;;;;;;;9.60;100.00;100421.47;5012872;28;20044;-74
2022/02/20 12:09:01;;;;;;;2.65;0.85;;;;;;;9.66;100.00;100418.28;5013882;28;20045;-74
2022/02/20 12:11:45;;;;;;;2.33;1.15;;;;;;;9.71;100.00;100413.41;5012866;28;20049;-74
2022/02/20 12:14:32;;;;;;;1.52;0.80;;;;;;;9.78;100.00;100413.72;5012883;28;20088;-74
2022/02/20 12:17:16;;;;;;;2.97;1.13;;;;;;;9.81;100.00;100408.94;5013443;28;20401;-74
2022/02/20 12:20:00;;;;;;;3.10;1.05;;;;;;;9.99;100.00;100425.13;5013732;28;20040;-75
2022/02/20 12:22:46;;;;;;;;;;;;;;;10.01;100.00;100428.50;5013196;28;20081;-74
2022/02/20 12:25:37;;;;;;;2.88;0.98;;;;;;;10.02;100.00;100430.16;5012575;28;19979;-74
2022/02/20 12:28:35;;;;;;;1.63;0.70;;;;;;;10.05;100.00;100412.13;5013630;28;20044;-74
2022/02/20 12:31:25;;;;;;;1.40;0.80;;;;;;;10.14;100.00;100421.09;4998652;28;20053;-74
2022/02/20 12:34:09;;;;;;;2.15;0.80;;;;;;;10.22;100.00;100437.25;5044116;23;20126;-73
2022/02/20 12:36:53;;;;;;;;;;;;;;;10.23;100.00;100425.63;5032318;28;20084;-68
2022/02/20 12:39:37;;;;;;;0.80;0.65;;;;;;;10.31;100.00;100422.13;5018095;28;19964;-71
2022/02/20 12:42:23;;;;;;;1.35;0.60;;;;;;;10.47;100.00;100416.25;5031928;28;20087;-73
2022/02/20 12:45:16;;;;;;;2.90;0.63;;;;;;;10.52;100.00;100416.66;5046003;28;20064;-73
2022/02/20 12:48:03;;;;;;;2.08;0.50;;;;;;;10.59;100.00;100426.63;5032923;28;20047;-71
2022/02/20 12:50:49;;;;;;;0.85;0.60;;;;;;;10.72;100.00;100429.84;5031843;28;20128;-73